createdAt,value
2023-03-26T00:01:36.304Z,4.15
2023-03-26T00:04:05.643Z,5.53
2023-03-26T00:06:38.743Z,7.00
2023-03-26T00:09:12.995Z,4.68
2023-03-26T00:11:39.902Z,3.80
2023-03-26T00:14:06.680Z,5.45
2023-03-26T00:16:33.897Z,4.53
2023-03-26T00:19:02.392Z,4.10
2023-03-26T00:21:30.749Z,6.25
2023-03-26T00:24:14.777Z,7.10
2023-03-26T00:26:42.224Z,5.68
2023-03-26T00:29:10.164Z,5.60
2023-03-26T00:31:39.840Z,6.47
2023-03-26T00:34:07.106Z,6.75
2023-03-26T00:36:35.962Z,5.22
2023-03-26T00:39:05.902Z,6.90
2023-03-26T00:44:04.207Z,6.75
2023-03-26T00:46:32.031Z,3.92
2023-03-26T00:49:00.557Z,10.35
2023-03-26T00:51:28.761Z,6.55
2023-03-26T00:53:57.249Z,6.00
2023-03-26T00:56:24.779Z,4.60
2023-03-26T00:58:51.960Z,4.97
2023-03-26T01:01:29.148Z,7.88
2023-03-26T01:04:08.279Z,8.20
2023-03-26T01:06:41.316Z,5.57
2023-03-26T01:09:18.673Z,4.05
2023-03-26T01:11:47.806Z,5.65
2023-03-26T01:14:23.590Z,7.15
2023-03-26T01:16:58.739Z,5.90
2023-03-26T01:19:45.775Z,4.93
2023-03-26T01:22:24.364Z,7.07
2023-03-26T01:24:53.486Z,8.07
2023-03-26T01:27:43.254Z,8.90
2023-03-26T01:30:36.995Z,7.85
2023-03-26T01:33:29.943Z,4.35
2023-03-26T01:36:13.358Z,7.03
2023-03-26T01:39:03.606Z,8.88
2023-03-26T01:41:44.256Z,5.07
2023-03-26T01:44:27.578Z,9.98
2023-03-26T01:46:55.394Z,3.42
2023-03-26T01:49:22.392Z,5.57
2023-03-26T01:51:51.185Z,6.25
2023-03-26T01:54:21.851Z,3.80
2023-03-26T01:57:14.187Z,5.75
2023-03-26T02:00:18.928Z,7.05
2023-03-26T02:03:17.511Z,3.47
2023-03-26T02:05:54.625Z,7.90
2023-03-26T02:08:35.444Z,4.93
2023-03-26T02:11:13.202Z,6.05
2023-03-26T02:13:43.017Z,4.03
2023-03-26T02:16:16.169Z,5.35
2023-03-26T02:18:44.972Z,5.88
2023-03-26T02:21:19.990Z,4.63
2023-03-26T02:23:50.699Z,4.00
2023-03-26T02:26:20.203Z,5.70
2023-03-26T02:29:04.510Z,4.78
2023-03-26T02:31:32.719Z,2.90
2023-03-26T02:33:59.550Z,4.75
2023-03-26T02:36:29.136Z,5.85
2023-03-26T02:39:00.162Z,3.88
2023-03-26T02:41:28.693Z,7.45
2023-03-26T02:44:02.625Z,3.13
2023-03-26T02:46:55.362Z,5.28
2023-03-26T02:49:51.224Z,5.00
2023-03-26T02:52:24.499Z,3.95
2023-03-26T02:54:53.446Z,6.65
2023-03-26T02:57:23.846Z,4.80
2023-03-26T03:00:13.077Z,2.90
2023-03-26T03:02:47.813Z,3.72
2023-03-26T03:05:31.490Z,6.35
2023-03-26T03:08:18.193Z,5.35
2023-03-26T03:11:18.305Z,10.10
2023-03-26T03:13:47.086Z,4.72
2023-03-26T03:16:21.214Z,4.93
2023-03-26T03:18:54.281Z,4.28
2023-03-26T03:21:28.121Z,4.53
2023-03-26T03:24:00.204Z,3.75
2023-03-26T03:26:29.709Z,5.38
2023-03-26T03:28:59.137Z,4.43
2023-03-26T03:31:27.176Z,3.58
2023-03-26T03:33:59.624Z,3.42
2023-03-26T03:36:30.317Z,3.65
2023-03-26T03:39:05.026Z,6.65
2023-03-26T03:41:32.700Z,4.85
2023-03-26T03:44:02.256Z,4.40
2023-03-26T03:46:31.662Z,2.47
2023-03-26T03:48:58.908Z,4.88
2023-03-26T03:51:31.377Z,4.32
2023-03-26T03:54:17.844Z,6.40
2023-03-26T03:56:48.678Z,5.57
2023-03-26T03:59:37.209Z,3.67
2023-03-26T04:02:07.647Z,7.07
2023-03-26T04:04:41.866Z,4.70
2023-03-26T04:07:11.654Z,4.85
2023-03-26T04:10:03.032Z,5.25
2023-03-26T04:12:47.877Z,2.70
2023-03-26T04:15:16.861Z,5.13
2023-03-26T04:17:45.418Z,4.55
2023-03-26T04:20:16.066Z,6.90
2023-03-26T04:22:46.588Z,4.68
2023-03-26T04:27:49.122Z,5.80
2023-03-26T04:30:24.623Z,5.80
2023-03-26T04:33:04.151Z,3.20
2023-03-26T04:35:37.015Z,3.40
2023-03-26T04:38:06.439Z,4.82
2023-03-26T04:40:38.974Z,6.20
2023-03-26T04:43:24.397Z,5.30
2023-03-26T04:46:23.560Z,2.63
2023-03-26T04:49:02.045Z,6.10
2023-03-26T04:51:38.234Z,6.38
2023-03-26T04:54:14.318Z,5.07
2023-03-26T04:57:03.745Z,5.25
2023-03-26T04:59:41.185Z,7.97
2023-03-26T05:02:12.895Z,3.72
2023-03-26T05:04:49.850Z,9.75
2023-03-26T05:07:23.750Z,6.17
2023-03-26T05:09:54.168Z,5.07
2023-03-26T05:12:34.547Z,4.78
2023-03-26T05:15:24.653Z,6.63
2023-03-26T05:18:06.152Z,5.28
2023-03-26T05:20:45.273Z,11.15
2023-03-26T05:23:12.572Z,5.07
2023-03-26T05:25:47.058Z,3.00
2023-03-26T05:28:19.181Z,8.88
2023-03-26T05:30:54.220Z,6.18
2023-03-26T05:33:23.313Z,7.38
2023-03-26T05:36:13.370Z,4.45
2023-03-26T05:38:47.557Z,3.45
2023-03-26T05:41:19.387Z,3.88
2023-03-26T05:43:48.776Z,3.05
2023-03-26T05:46:20.262Z,5.13
2023-03-26T05:48:47.572Z,5.60
2023-03-26T05:51:17.893Z,6.40
2023-03-26T05:53:56.771Z,5.47
2023-03-26T05:56:26.297Z,5.30
2023-03-26T05:59:12.017Z,7.93
2023-03-26T06:02:04.945Z,6.75
2023-03-26T06:04:57.731Z,4.93
2023-03-26T06:07:35.626Z,3.88
2023-03-26T06:10:10.612Z,4.10
2023-03-26T06:12:38.118Z,6.72
2023-03-26T06:15:07.079Z,5.50
2023-03-26T06:17:47.856Z,5.75
2023-03-26T06:20:35.499Z,8.80
2023-03-26T06:23:08.515Z,6.55
2023-03-26T06:25:51.255Z,5.53
2023-03-26T06:28:38.510Z,5.95
2023-03-26T06:31:20.933Z,8.90
2023-03-26T06:33:56.872Z,4.85
2023-03-26T06:36:23.842Z,6.13
2023-03-26T06:38:51.375Z,5.65
2023-03-26T06:41:18.234Z,5.80
2023-03-26T06:44:03.628Z,7.82
2023-03-26T06:47:08.353Z,4.07
2023-03-26T06:49:50.199Z,7.25
2023-03-26T06:52:37.789Z,5.90
2023-03-26T06:55:28.355Z,7.90
2023-03-26T06:58:06.182Z,8.60
2023-03-26T07:00:56.040Z,9.27
2023-03-26T07:03:41.455Z,9.05
2023-03-26T07:06:27.393Z,9.50
2023-03-26T07:09:32.581Z,6.70
2023-03-26T07:12:22.229Z,13.43
2023-03-26T07:15:08.372Z,4.50
2023-03-26T07:17:56.260Z,8.18
2023-03-26T07:20:27.334Z,5.88
2023-03-26T07:22:54.856Z,4.75
2023-03-26T07:25:41.013Z,6.88
2023-03-26T07:28:36.010Z,6.72
2023-03-26T07:32:18.484Z,7.30
2023-03-26T07:35:14.678Z,4.78
2023-03-26T07:38:35.247Z,4.63
2023-03-26T07:41:59.816Z,8.77
2023-03-26T07:45:33.774Z,5.55
2023-03-26T07:48:27.329Z,7.82
2023-03-26T07:51:21.132Z,5.03
2023-03-26T07:54:11.178Z,5.30
2023-03-26T07:57:03.533Z,9.77
2023-03-26T07:59:51.984Z,4.68
2023-03-26T08:03:01.228Z,6.22
2023-03-26T08:06:22.250Z,6.57
2023-03-26T08:09:15.382Z,6.15
2023-03-26T08:12:21.180Z,5.70
2023-03-26T08:15:43.843Z,5.07
2023-03-26T08:18:52.305Z,5.57
2023-03-26T08:21:28.780Z,7.00
2023-03-26T08:24:10.934Z,6.82
2023-03-26T08:27:08.634Z,7.95
2023-03-26T08:29:55.019Z,6.78
2023-03-26T08:32:22.401Z,8.40
2023-03-26T08:34:49.577Z,8.77
2023-03-26T08:37:16.402Z,5.05
2023-03-26T08:39:43.189Z,6.85
2023-03-26T08:42:42.374Z,7.72
2023-03-26T08:45:30.330Z,6.40
2023-03-26T08:48:28.872Z,5.30
2023-03-26T08:51:50.466Z,5.93
2023-03-26T08:54:52.359Z,5.30
2023-03-26T08:58:08.906Z,5.38
2023-03-26T09:00:57.708Z,5.55
2023-03-26T09:04:03.680Z,4.55
2023-03-26T09:07:09.743Z,7.00
2023-03-26T09:10:28.031Z,5.82
2023-03-26T09:13:28.587Z,5.25
2023-03-26T09:16:06.217Z,7.78
2023-03-26T09:19:30.618Z,5.50
2023-03-26T09:22:40.285Z,5.22
2023-03-26T09:25:55.730Z,6.65
2023-03-26T09:29:00.786Z,6.75
2023-03-26T09:31:59.437Z,4.95
2023-03-26T09:35:06.288Z,3.78
2023-03-26T09:38:03.285Z,10.07
2023-03-26T09:40:46.342Z,4.40
2023-03-26T09:43:59.946Z,5.60
2023-03-26T09:46:41.732Z,4.25
2023-03-26T09:49:29.590Z,5.03
2023-03-26T09:52:18.026Z,3.33
2023-03-26T09:55:00.997Z,2.45
2023-03-26T09:57:39.515Z,2.70
2023-03-26T10:00:27.335Z,3.35
2023-03-26T10:03:26.899Z,3.22
2023-03-26T10:06:09.690Z,2.92
2023-03-26T10:08:51.951Z,1.90
2023-03-26T10:11:56.290Z,2.60
2023-03-26T10:14:29.319Z,1.75
2023-03-26T10:17:35.788Z,3.53
2023-03-26T10:20:26.705Z,2.70
2023-03-26T10:23:04.830Z,2.03
2023-03-26T10:26:09.793Z,2.38
2023-03-26T10:29:12.124Z,1.63
2023-03-26T10:32:06.562Z,3.28
2023-03-26T10:34:51.780Z,2.60
2023-03-26T10:37:55.446Z,1.73
2023-03-26T10:41:00.492Z,2.15
2023-03-26T10:43:57.660Z,2.88
2023-03-26T10:47:22.385Z,3.35
2023-03-26T10:50:23.950Z,2.90
2023-03-26T10:53:07.206Z,1.45
2023-03-26T10:55:47.416Z,2.05
2023-03-26T10:58:24.555Z,3.95
2023-03-26T11:01:11.832Z,1.90
2023-03-26T11:03:56.184Z,1.20
2023-03-26T11:06:43.067Z,3.55
2023-03-26T11:09:45.004Z,3.10
2023-03-26T11:12:33.606Z,2.55
2023-03-26T11:15:52.508Z,1.85
2023-03-26T11:19:11.429Z,2.88
2023-03-26T11:21:54.424Z,2.90
2023-03-26T11:24:43.648Z,1.30
2023-03-26T11:27:30.146Z,3.50
2023-03-26T11:30:12.346Z,2.33
2023-03-26T11:32:45.854Z,1.35
2023-03-26T11:35:40.158Z,3.10
2023-03-26T11:38:21.924Z,3.45
2023-03-26T11:40:55.132Z,2.40
2023-03-26T11:43:36.767Z,3.53
2023-03-26T11:46:07.580Z,3.47
2023-03-26T11:48:44.312Z,2.13
2023-03-26T11:51:36.661Z,1.77
2023-03-26T11:54:06.007Z,3.47
2023-03-26T11:57:05.734Z,2.70
2023-03-26T11:59:55.562Z,2.17
2023-03-26T12:02:33.921Z,2.60
2023-03-26T12:05:26.613Z,2.38
2023-03-26T12:08:03.539Z,3.97
2023-03-26T12:10:39.440Z,5.00
2023-03-26T12:13:53.392Z,3.15
2023-03-26T12:16:22.439Z,2.78
2023-03-26T12:19:00.286Z,4.83
2023-03-26T12:21:27.308Z,3.70
2023-03-26T12:24:08.717Z,4.43
2023-03-26T12:26:42.815Z,4.15
2023-03-26T12:29:17.327Z,2.83
2023-03-26T12:32:03.068Z,2.55
2023-03-26T12:34:36.128Z,2.28
2023-03-26T12:37:06.757Z,4.05
2023-03-26T12:40:10.665Z,3.05
2023-03-26T12:44:50.756Z,2.60
2023-03-26T12:45:24.093Z,3.20
2023-03-26T12:47:59.727Z,3.08
2023-03-26T12:51:06.866Z,3.25
2023-03-26T12:54:15.241Z,3.72
2023-03-26T12:56:47.729Z,2.22
2023-03-26T12:59:36.394Z,4.38
2023-03-26T13:02:43.761Z,3.13
2023-03-26T13:05:39.827Z,4.25
2023-03-26T13:08:46.530Z,4.18
2023-03-26T13:11:23.772Z,4.20
2023-03-26T13:13:59.420Z,3.35
2023-03-26T13:16:44.501Z,4.85
2023-03-26T13:19:27.022Z,1.70
2023-03-26T13:22:09.029Z,2.58
2023-03-26T13:25:23.726Z,5.20
2023-03-26T13:28:07.509Z,5.13
2023-03-26T13:30:42.089Z,3.65
2023-03-26T13:33:20.822Z,3.65
2023-03-26T13:36:14.344Z,3.72
2023-03-26T13:39:24.830Z,2.80
2023-03-26T13:42:26.628Z,5.22
2023-03-26T13:45:30.097Z,5.47
2023-03-26T13:47:59.156Z,3.13
2023-03-26T13:50:34.187Z,5.20
2023-03-26T13:53:13.773Z,4.43
2023-03-26T13:55:55.908Z,3.72
2023-03-26T13:58:38.745Z,3.42
2023-03-26T14:01:19.388Z,5.20
2023-03-26T14:04:10.867Z,4.03
2023-03-26T14:06:57.082Z,2.85
2023-03-26T14:09:48.278Z,3.92
2023-03-26T14:12:48.765Z,5.00
2023-03-26T14:15:26.756Z,2.35
2023-03-26T14:18:22.638Z,0.50
2023-03-26T14:21:17.057Z,3.00
2023-03-26T14:24:01.952Z,1.40
2023-03-26T14:26:58.493Z,1.55
2023-03-26T14:29:56.514Z,1.77
2023-03-26T14:32:37.829Z,2.10
2023-03-26T14:35:23.254Z,1.67
2023-03-26T14:38:07.897Z,4.32
2023-03-26T14:40:57.892Z,2.90
2023-03-26T14:43:41.776Z,1.20
2023-03-26T14:46:23.686Z,1.20
2023-03-26T14:49:32.601Z,0.90
2023-03-26T14:52:36.835Z,0.60
2023-03-26T14:55:14.031Z,3.97
2023-03-26T14:58:07.442Z,1.27
2023-03-26T15:01:24.209Z,0.65
2023-03-26T15:04:09.652Z,1.75
2023-03-26T15:07:18.819Z,0.88
2023-03-26T15:10:11.523Z,0.52
2023-03-26T15:13:03.578Z,0.20
2023-03-26T15:15:57.698Z,0.20
2023-03-26T15:19:04.006Z,0.63
2023-03-26T15:21:57.916Z,0.35
2023-03-26T15:24:46.205Z,0.85
2023-03-26T15:27:57.425Z,0.88
2023-03-26T15:30:53.693Z,0.10
2023-03-26T15:34:06.070Z,0.90
2023-03-26T15:37:10.624Z,0.95
2023-03-26T15:40:16.537Z,0.10
2023-03-26T15:43:11.049Z,0.40
2023-03-26T15:46:02.739Z,0.60
2023-03-26T15:48:57.653Z,0.28
2023-03-26T15:51:47.635Z,0.40
2023-03-26T15:54:36.864Z,0.20
2023-03-26T15:57:32.740Z,0.57
2023-03-26T16:00:22.157Z,0.88
2023-03-26T16:03:10.795Z,0.80
2023-03-26T16:06:19.614Z,0.30
2023-03-26T16:08:58.135Z,0.32
2023-03-26T16:11:53.989Z,1.13
2023-03-26T16:14:36.230Z,0.30
2023-03-26T16:17:06.366Z,0.30
2023-03-26T16:19:40.965Z,1.20
2023-03-26T16:22:16.236Z,1.80
2023-03-26T16:24:47.619Z,1.00
2023-03-26T16:27:14.284Z,1.17
2023-03-26T16:29:59.931Z,0.30
2023-03-26T16:32:45.978Z,1.77
2023-03-26T16:35:16.472Z,0.52
2023-03-26T16:37:50.338Z,0.98
2023-03-26T16:40:17.740Z,0.52
2023-03-26T16:43:14.948Z,0.22
2023-03-26T16:46:15.513Z,1.00
2023-03-26T16:48:57.296Z,0.52
2023-03-26T16:52:02.494Z,0.38
2023-03-26T16:54:50.545Z,1.73
2023-03-26T16:57:36.849Z,0.82
2023-03-26T17:00:48.432Z,0.77
2023-03-26T17:03:35.433Z,0.30
2023-03-26T17:06:17.397Z,0.35
2023-03-26T17:09:05.357Z,0.75
2023-03-26T17:11:56.456Z,0.73
2023-03-26T17:14:53.822Z,1.00
2023-03-26T17:17:43.807Z,0.20
2023-03-26T17:21:01.880Z,0.40
2023-03-26T17:23:55.423Z,2.60
2023-03-26T17:26:53.734Z,1.25
2023-03-26T17:29:44.854Z,0.80
2023-03-26T17:32:14.990Z,1.23
2023-03-26T17:34:50.924Z,0.73
2023-03-26T17:37:23.453Z,0.28
2023-03-26T17:40:01.994Z,1.52
2023-03-26T17:42:32.638Z,0.85
2023-03-26T17:45:23.300Z,1.02
2023-03-26T17:48:12.907Z,0.68
2023-03-26T17:50:56.641Z,1.27
2023-03-26T17:53:30.830Z,0.45
2023-03-26T17:56:03.626Z,1.50
2023-03-26T17:58:36.360Z,1.67
2023-03-26T18:01:16.584Z,0.45
2023-03-26T18:03:50.594Z,1.15
2023-03-26T18:06:40.994Z,0.95
2023-03-26T18:09:46.704Z,1.38
2023-03-26T18:12:31.267Z,1.20
2023-03-26T18:15:58.305Z,1.00
2023-03-26T18:18:44.104Z,1.52
2023-03-26T18:21:19.993Z,0.90
2023-03-26T18:23:48.985Z,2.22
2023-03-26T18:26:21.855Z,2.73
2023-03-26T18:29:09.174Z,2.70
2023-03-26T18:31:40.913Z,2.78
2023-03-26T18:34:18.929Z,0.82
2023-03-26T18:37:00.998Z,2.33
2023-03-26T18:39:28.094Z,1.83
2023-03-26T18:41:55.252Z,1.52
2023-03-26T18:44:22.262Z,1.38
2023-03-26T18:46:54.483Z,0.75
2023-03-26T18:49:22.112Z,0.90
2023-03-26T18:51:56.899Z,1.45
2023-03-26T18:54:30.850Z,0.82
2023-03-26T18:56:58.814Z,0.82
2023-03-26T18:59:30.811Z,1.30
2023-03-26T19:01:59.836Z,0.40
2023-03-26T19:04:31.679Z,0.98
2023-03-26T19:06:59.321Z,0.35
2023-03-26T19:09:32.382Z,0.43
2023-03-26T19:12:16.576Z,0.50
2023-03-26T19:15:13.970Z,0.30
2023-03-26T19:17:48.198Z,0.35
2023-03-26T19:20:30.496Z,0.20
2023-03-26T19:22:58.222Z,0.38
2023-03-26T19:25:48.066Z,0.70
2023-03-26T19:28:25.688Z,1.75
2023-03-26T19:30:57.490Z,0.63
2023-03-26T19:33:33.583Z,0.93
2023-03-26T19:36:17.778Z,0.65
2023-03-26T19:38:52.038Z,1.27
2023-03-26T19:41:26.847Z,0.65
2023-03-26T19:43:57.898Z,0.73
2023-03-26T19:46:26.680Z,1.60
2023-03-26T19:48:56.617Z,0.57
2023-03-26T19:54:13.811Z,1.93
2023-03-26T19:56:40.659Z,0.43
2023-03-26T19:59:07.661Z,0.30
2023-03-26T20:01:34.821Z,0.32
2023-03-26T20:04:06.239Z,0.30
2023-03-26T20:06:43.796Z,0.82
2023-03-26T20:09:13.124Z,0.80
2023-03-26T20:11:40.559Z,2.05
2023-03-26T20:14:16.464Z,1.35
2023-03-26T20:16:45.289Z,1.13
2023-03-26T20:19:13.845Z,0.30
2023-03-26T20:21:41.189Z,0.30
2023-03-26T20:24:14.548Z,1.25
2023-03-26T20:26:41.866Z,2.20
2023-03-26T20:29:08.856Z,3.63
2023-03-26T20:31:35.673Z,3.75
2023-03-26T20:34:02.539Z,2.67
2023-03-26T20:36:33.345Z,1.45
2023-03-26T20:39:07.915Z,1.65
2023-03-26T20:41:38.049Z,0.82
2023-03-26T20:46:40.298Z,0.60
2023-03-26T20:49:07.182Z,0.85
2023-03-26T20:51:33.993Z,0.55
2023-03-26T20:54:00.832Z,2.03
2023-03-26T20:56:28.088Z,1.40
2023-03-26T20:59:09.979Z,1.98
2023-03-26T21:01:38.570Z,1.15
2023-03-26T21:04:06.453Z,0.70
2023-03-26T21:06:33.435Z,7.57
2023-03-26T21:09:00.693Z,1.75
2023-03-26T21:11:51.931Z,2.63
2023-03-26T21:14:21.753Z,1.08
2023-03-26T21:16:49.137Z,1.60
2023-03-26T21:19:16.292Z,0.95
2023-03-26T21:22:05.757Z,1.65
2023-03-26T21:24:55.048Z,2.65
2023-03-26T21:27:51.520Z,2.63
2023-03-26T21:30:18.828Z,0.70
2023-03-26T21:32:46.674Z,3.30
2023-03-26T21:35:14.889Z,1.50
2023-03-26T21:37:43.913Z,1.58
2023-03-26T21:40:16.586Z,2.38
2023-03-26T21:42:49.165Z,2.05
2023-03-26T21:45:18.070Z,1.75
2023-03-26T21:47:46.311Z,3.08
2023-03-26T21:50:21.598Z,1.45
2023-03-26T21:52:50.670Z,0.95
2023-03-26T21:55:20.914Z,1.33
2023-03-26T21:58:28.206Z,2.45
2023-03-26T22:01:34.421Z,0.95
2023-03-26T22:04:39.502Z,2.05
2023-03-26T22:07:18.628Z,0.85
2023-03-26T22:09:45.748Z,1.90
2023-03-26T22:12:12.911Z,0.47
2023-03-26T22:14:40.452Z,0.98
2023-03-26T22:17:07.371Z,1.23
2023-03-26T22:19:34.588Z,1.05
2023-03-26T22:22:02.007Z,0.60
2023-03-26T22:24:29.567Z,0.47
2023-03-26T22:26:56.486Z,0.93
2023-03-26T22:29:23.309Z,1.30
2023-03-26T22:31:50.088Z,0.52
2023-03-26T22:34:17.630Z,1.27
2023-03-26T22:36:44.458Z,1.40
2023-03-26T22:39:12.181Z,1.08
2023-03-26T22:41:39.135Z,1.13
2023-03-26T22:44:19.177Z,1.50
2023-03-26T22:46:48.790Z,1.00
2023-03-26T22:49:16.227Z,0.82
2023-03-26T22:51:43.363Z,1.45
2023-03-26T22:54:10.208Z,1.45
2023-03-26T22:56:37.078Z,1.00
2023-03-26T22:59:04.003Z,0.77
2023-03-26T23:01:31.070Z,2.45
2023-03-26T23:03:58.160Z,4.15
2023-03-26T23:06:25.142Z,0.40
2023-03-26T23:08:52.028Z,0.90
2023-03-26T23:11:21.807Z,0.52
2023-03-26T23:13:48.771Z,1.13
2023-03-26T23:16:17.373Z,0.75
2023-03-26T23:18:44.773Z,0.57
2023-03-26T23:21:19.062Z,0.80
2023-03-26T23:23:47.042Z,1.30
2023-03-26T23:26:14.892Z,1.05
2023-03-26T23:28:43.086Z,1.45
2023-03-26T23:31:12.196Z,0.68
2023-03-26T23:33:46.429Z,1.15
2023-03-26T23:36:19.304Z,0.60
2023-03-26T23:38:48.038Z,0.93
2023-03-26T23:41:18.642Z,1.45
2023-03-26T23:43:54.596Z,0.80
2023-03-26T23:46:34.477Z,0.90
2023-03-26T23:49:04.604Z,0.60
2023-03-26T23:51:32.773Z,0.82
2023-03-26T23:54:00.365Z,0.40
2023-03-26T23:56:30.288Z,0.47
2023-03-26T23:58:58.051Z,0.63
